logo
Search for airport 
image banner adimage banner adimage banner ad
image banner ad

CSV2 - Ste-Agathe (Aim)

Located in , Canada

ICAO - CSV2, IATA -

Data provided by Airmate  

General information

Coordinates: N46°7'0" W74°18'0"
Elevation is 1250 feet MSL.
Magnetic variation is -15° East
View others Airports in Quebec

Operational data

Special qualification required
Current time UTC:
Current local time:
Weather at : CYMX - Montreal Intl (Mirabel) ( 53 km )
METAR: CYMX 131100Z 02006G16KT 330V110 1 1/4SM -SN VV011 M02/M02 A2963 RMK SN8 SLP040
TAF: TAF CYMX 062340Z 0700/0724 06005KT P6SM SKC FM070800 04008KT P6SM FEW008 FM071500 07008KT P6SM BKN200 FM071900 07010KT P6SM FEW050 OVC100 TEMPO 0720/0722 3SM -SN BKN050 OVC100 FM072200 05008KT 1SM -SN OVC012 PROB30 0722/0724 2SM -SN -FZDZ OVC008 RMK NXT FCST BY 070600Z
View NOTAMs / SUP AIP / TFR affecting this airport [VIEW]
Communications frequencies: [VIEW]

Runways:

Airport contact information

Address: Canada

Satellite view of CSV2